Terminal Aerodrome Forecast
Issued by NWS

Home | Current Version | Previous Version | Text Only | Print | Product List | Glossary On
Versions: 1 2 3 4 5 6 7 8 9 10 11 12 13 14 15 16 17 18 19 20 21 22 23 24 25 26 27
000
FTAK31 PAJK 232345
TAFAGY
TAF
PAGY 232345Z 2400/2424 21008KT P6SM SCT040 BKN080
     FM240600 VRB03KT P6SM BKN040 OVC080
     FM241900 21011KT P6SM SCT040 BKN080
     AMD LTD TO CLD VIS AND WIND=

USA.gov is the U.S. government's official web portal to all federal, state and local government web resources and services.